createdAt,value
2022-09-28T00:00:57.328Z,992.74
2022-09-28T00:01:57.468Z,992.71
2022-09-28T00:02:57.367Z,992.73
2022-09-28T00:03:57.343Z,992.73
2022-09-28T00:04:57.311Z,992.73
2022-09-28T00:05:57.364Z,992.73
2022-09-28T00:06:57.317Z,992.72
2022-09-28T00:07:57.347Z,992.72
2022-09-28T00:08:57.255Z,992.72
2022-09-28T00:09:57.265Z,992.72
2022-09-28T00:10:57.272Z,992.72
2022-09-28T00:11:57.222Z,992.72
2022-09-28T00:12:57.250Z,992.72
2022-09-28T00:13:57.207Z,992.72
2022-09-28T00:14:57.184Z,992.72
2022-09-28T00:15:57.309Z,992.71
2022-09-28T00:16:57.169Z,992.71
2022-09-28T00:17:57.213Z,992.70
2022-09-28T00:18:57.152Z,992.69
2022-09-28T00:19:57.188Z,992.69
2022-09-28T00:20:57.129Z,992.68
2022-09-28T00:21:57.115Z,992.68
2022-09-28T00:22:57.140Z,992.69
2022-09-28T00:23:57.109Z,992.70
2022-09-28T00:24:57.117Z,992.69
2022-09-28T00:25:57.186Z,992.69
2022-09-28T00:26:57.088Z,992.69
2022-09-28T00:27:57.071Z,992.68
2022-09-28T00:28:57.040Z,992.68
2022-09-28T00:29:57.042Z,992.67
2022-09-28T00:30:57.054Z,992.66
2022-09-28T00:31:57.110Z,992.65
2022-09-28T00:32:57.058Z,992.64
2022-09-28T00:33:57.022Z,992.64
2022-09-28T00:34:56.980Z,992.64
2022-09-28T00:35:56.998Z,992.63
2022-09-28T00:36:56.998Z,992.64
2022-09-28T00:37:56.963Z,992.64
2022-09-28T00:38:56.945Z,992.63
2022-09-28T00:39:56.929Z,992.62
2022-09-28T00:40:56.964Z,992.61
2022-09-28T00:41:56.912Z,992.61
2022-09-28T00:42:56.957Z,992.59
2022-09-28T00:43:56.930Z,992.58
2022-09-28T00:44:56.875Z,992.58
2022-09-28T00:45:56.900Z,992.57
2022-09-28T00:46:56.877Z,992.56
2022-09-28T00:47:56.882Z,992.55
2022-09-28T00:48:56.837Z,992.54
2022-09-28T00:49:56.867Z,992.53
2022-09-28T00:50:56.824Z,992.52
2022-09-28T00:51:56.809Z,992.51
2022-09-28T00:52:56.803Z,992.50
2022-09-28T00:53:56.786Z,992.48
2022-09-28T00:54:56.772Z,992.47
2022-09-28T00:55:56.775Z,992.47
2022-09-28T00:56:56.751Z,992.46
2022-09-28T00:57:56.829Z,992.47
2022-09-28T00:58:56.729Z,992.47
2022-09-28T00:59:56.764Z,992.46
2022-09-28T01:00:56.738Z,992.47
2022-09-28T01:01:56.762Z,992.47
2022-09-28T01:02:56.740Z,992.48
2022-09-28T01:03:56.683Z,992.48
2022-09-28T01:04:56.668Z,992.48
2022-09-28T01:05:56.707Z,992.49
2022-09-28T01:06:56.704Z,992.49
2022-09-28T01:07:56.653Z,992.49
2022-09-28T01:08:56.642Z,992.50
2022-09-28T01:09:56.688Z,992.51
2022-09-28T01:10:56.604Z,992.53
2022-09-28T01:11:56.620Z,992.53
2022-09-28T01:12:56.615Z,992.53
2022-09-28T01:13:56.580Z,992.54
2022-09-28T01:14:56.564Z,992.52
2022-09-28T01:15:56.572Z,992.51
2022-09-28T01:16:56.541Z,992.52
2022-09-28T01:17:56.560Z,992.52
2022-09-28T01:18:56.520Z,992.51
2022-09-28T01:19:56.521Z,992.50
2022-09-28T01:20:56.516Z,992.48
2022-09-28T01:21:56.526Z,992.48
2022-09-28T01:22:56.480Z,992.46
2022-09-28T01:23:56.492Z,992.46
2022-09-28T01:24:56.469Z,992.45
2022-09-28T01:25:56.453Z,992.43
2022-09-28T01:26:56.444Z,992.44
2022-09-28T01:27:56.448Z,992.43
2022-09-28T01:28:56.425Z,992.43
2022-09-28T01:29:56.414Z,992.43
2022-09-28T01:30:56.421Z,992.41
2022-09-28T01:31:56.461Z,992.38
2022-09-28T01:32:56.383Z,992.37
2022-09-28T01:33:56.374Z,992.35
2022-09-28T01:34:56.354Z,992.33
2022-09-28T01:35:56.352Z,992.31
2022-09-28T01:36:56.345Z,992.30
2022-09-28T01:37:56.329Z,992.30
2022-09-28T01:38:56.321Z,992.29
2022-09-28T01:39:56.306Z,992.29
2022-09-28T01:40:56.448Z,992.30
2022-09-28T01:41:56.301Z,992.30
2022-09-28T01:42:56.282Z,992.30
2022-09-28T01:43:56.282Z,992.30
2022-09-28T01:44:56.255Z,992.29
2022-09-28T01:45:56.320Z,992.28
2022-09-28T01:46:56.263Z,992.28
2022-09-28T01:47:56.225Z,992.28
2022-09-28T01:48:56.212Z,992.28
2022-09-28T01:49:56.201Z,992.27
2022-09-28T01:50:56.198Z,992.26
2022-09-28T01:51:56.204Z,992.25
2022-09-28T01:52:56.173Z,992.24
2022-09-28T01:53:56.163Z,992.24
2022-09-28T01:54:56.153Z,992.23
2022-09-28T01:55:56.140Z,992.21
2022-09-28T01:56:56.152Z,992.19
2022-09-28T01:57:56.125Z,992.18
2022-09-28T01:58:56.119Z,992.17
2022-09-28T01:59:56.126Z,992.16
2022-09-28T02:00:56.145Z,992.15
2022-09-28T02:01:56.125Z,992.15
2022-09-28T02:02:56.074Z,992.14
2022-09-28T02:03:56.061Z,992.15
2022-09-28T02:04:56.049Z,992.15
2022-09-28T02:05:56.057Z,992.15
2022-09-28T02:06:56.037Z,992.16
2022-09-28T02:07:56.023Z,992.17
2022-09-28T02:08:56.016Z,992.18
2022-09-28T02:09:56.000Z,992.17
2022-09-28T02:10:56.020Z,992.17
2022-09-28T02:11:55.997Z,992.18
2022-09-28T02:12:55.967Z,992.20
2022-09-28T02:13:55.985Z,992.20
2022-09-28T02:14:55.983Z,992.20
2022-09-28T02:15:56.088Z,992.19
2022-09-28T02:16:55.954Z,992.18
2022-09-28T02:17:55.919Z,992.17
2022-09-28T02:18:55.939Z,992.16
2022-09-28T02:19:55.925Z,992.15
2022-09-28T02:20:55.943Z,992.16
2022-09-28T02:21:55.936Z,992.15
2022-09-28T02:22:55.908Z,992.15
2022-09-28T02:23:55.865Z,992.14
2022-09-28T02:24:55.837Z,992.14
2022-09-28T02:25:55.883Z,992.13
2022-09-28T02:26:55.893Z,992.12
2022-09-28T02:27:55.817Z,992.11
2022-09-28T02:28:55.841Z,992.11
2022-09-28T02:29:55.811Z,992.11
2022-09-28T02:30:55.794Z,992.10
2022-09-28T02:31:55.919Z,992.11
2022-09-28T02:32:55.768Z,992.12
2022-09-28T02:33:55.835Z,992.14
2022-09-28T02:34:55.754Z,992.13
2022-09-28T02:35:55.739Z,992.14
2022-09-28T02:36:55.760Z,992.12
2022-09-28T02:37:55.714Z,992.11
2022-09-28T02:38:55.701Z,992.09
2022-09-28T02:39:55.688Z,992.09
2022-09-28T02:40:55.751Z,992.08
2022-09-28T02:41:55.678Z,992.08
2022-09-28T02:42:55.691Z,992.07
2022-09-28T02:43:55.692Z,992.06
2022-09-28T02:44:55.703Z,992.07
2022-09-28T02:45:55.825Z,992.07
2022-09-28T02:46:55.653Z,992.07
2022-09-28T02:47:55.603Z,992.08
2022-09-28T02:49:10.535Z,992.08
2022-09-28T02:49:55.585Z,992.07
2022-09-28T02:50:55.632Z,992.04
2022-09-28T02:51:55.590Z,992.04
2022-09-28T02:52:55.565Z,992.04
2022-09-28T02:53:55.558Z,992.04
2022-09-28T02:54:55.566Z,992.04
2022-09-28T02:55:55.571Z,992.03
2022-09-28T02:56:55.571Z,992.02
2022-09-28T02:57:55.505Z,992.02
2022-09-28T02:58:55.492Z,992.03
2022-09-28T02:59:55.495Z,992.01
2022-09-28T03:00:55.525Z,992.00
2022-09-28T03:01:55.512Z,991.99
2022-09-28T03:02:55.527Z,991.97
2022-09-28T03:03:55.500Z,991.95
2022-09-28T03:04:55.443Z,991.94
2022-09-28T03:05:55.427Z,991.95
2022-09-28T03:06:55.450Z,991.94
2022-09-28T03:07:55.448Z,991.93
2022-09-28T03:08:55.446Z,991.91
2022-09-28T03:09:55.398Z,991.90
2022-09-28T03:10:55.375Z,991.90
2022-09-28T03:11:55.368Z,991.90
2022-09-28T03:12:55.408Z,991.90
2022-09-28T03:13:55.423Z,991.90
2022-09-28T03:14:55.599Z,991.90
2022-09-28T03:15:55.362Z,991.89
2022-09-28T03:16:55.323Z,991.88
2022-09-28T03:17:55.352Z,991.86
2022-09-28T03:18:55.344Z,991.85
2022-09-28T03:19:55.358Z,991.85
2022-09-28T03:20:55.281Z,991.85
2022-09-28T03:21:55.267Z,991.85
2022-09-28T03:23:22.891Z,991.85
2022-09-28T03:23:55.249Z,991.84
2022-09-28T03:24:55.328Z,991.84
2022-09-28T03:25:55.261Z,991.83
2022-09-28T03:26:55.248Z,991.82
2022-09-28T03:27:55.188Z,991.81
2022-09-28T03:28:55.183Z,991.80
2022-09-28T03:29:55.186Z,991.80
2022-09-28T03:30:55.189Z,991.80
2022-09-28T03:31:55.241Z,991.80
2022-09-28T03:32:55.178Z,991.81
2022-09-28T03:33:55.146Z,991.83
2022-09-28T03:34:55.140Z,991.83
2022-09-28T03:35:55.141Z,991.83
2022-09-28T03:36:55.100Z,991.83
2022-09-28T03:37:55.112Z,991.83
2022-09-28T03:38:55.079Z,991.81
2022-09-28T03:39:55.082Z,991.79
2022-09-28T03:40:55.172Z,991.77
2022-09-28T03:41:55.079Z,991.76
2022-09-28T03:42:55.053Z,991.76
2022-09-28T03:43:55.080Z,991.75
2022-09-28T03:44:55.104Z,991.72
2022-09-28T03:45:55.084Z,991.71
2022-09-28T03:46:55.004Z,991.74
2022-09-28T03:47:55.000Z,991.74
2022-09-28T03:48:54.989Z,991.74
2022-09-28T03:49:55.015Z,991.73
2022-09-28T03:50:54.961Z,991.72
2022-09-28T03:51:55.014Z,991.71
2022-09-28T03:52:55.037Z,991.70
2022-09-28T03:53:55.009Z,991.70
2022-09-28T03:54:54.949Z,991.70
2022-09-28T03:55:54.904Z,991.70
2022-09-28T03:56:54.894Z,991.68
2022-09-28T03:57:54.878Z,991.67
2022-09-28T03:58:54.937Z,991.66
2022-09-28T03:59:54.884Z,991.65
2022-09-28T04:00:54.994Z,991.63
2022-09-28T04:01:54.996Z,991.62
2022-09-28T04:02:54.831Z,991.61
2022-09-28T04:03:54.826Z,991.60
2022-09-28T04:04:54.885Z,991.59
2022-09-28T04:05:54.797Z,991.57
2022-09-28T04:06:54.791Z,991.57
2022-09-28T04:07:54.835Z,991.54
2022-09-28T04:08:54.785Z,991.55
2022-09-28T04:09:54.753Z,991.54
2022-09-28T04:10:54.750Z,991.53
2022-09-28T04:12:03.807Z,991.51
2022-09-28T04:12:54.761Z,991.50
2022-09-28T04:13:54.733Z,991.48
2022-09-28T04:14:54.751Z,991.47
2022-09-28T04:15:54.703Z,991.47
2022-09-28T04:16:54.688Z,991.46
2022-09-28T04:17:54.672Z,991.45
2022-09-28T04:18:54.689Z,991.45
2022-09-28T04:19:54.680Z,991.45
2022-09-28T04:20:54.644Z,991.46
2022-09-28T04:21:54.641Z,991.45
2022-09-28T04:22:54.636Z,991.45
2022-09-28T04:23:54.619Z,991.44
2022-09-28T04:24:54.602Z,991.43
2022-09-28T04:25:54.589Z,991.42
2022-09-28T04:26:54.596Z,991.42
2022-09-28T04:27:54.572Z,991.41
2022-09-28T04:28:54.579Z,991.41
2022-09-28T04:29:54.554Z,991.41
2022-09-28T04:30:54.568Z,991.40
2022-09-28T04:31:54.621Z,991.40
2022-09-28T04:32:54.526Z,991.41
2022-09-28T04:33:54.537Z,991.43
2022-09-28T04:34:54.509Z,991.45
2022-09-28T04:35:54.441Z,991.46
2022-09-28T04:36:54.480Z,991.47
2022-09-28T04:37:54.464Z,991.47
2022-09-28T04:38:54.472Z,991.48
2022-09-28T04:39:54.454Z,991.50
2022-09-28T04:40:54.438Z,991.50
2022-09-28T04:41:54.368Z,991.51
2022-09-28T04:42:54.378Z,991.51
2022-09-28T04:43:54.428Z,991.51
2022-09-28T04:44:54.363Z,991.51
2022-09-28T04:45:54.381Z,991.51
2022-09-28T04:46:54.331Z,991.51
2022-09-28T04:47:54.313Z,991.51
2022-09-28T04:48:54.321Z,991.52
2022-09-28T04:49:54.285Z,991.52
2022-09-28T04:50:54.285Z,991.53
2022-09-28T04:51:54.278Z,991.53
2022-09-28T04:52:54.271Z,991.53
2022-09-28T04:53:54.526Z,991.54
2022-09-28T04:54:54.284Z,991.55
2022-09-28T04:55:54.227Z,991.56
2022-09-28T04:56:54.255Z,991.56
2022-09-28T04:57:54.385Z,991.56
2022-09-28T04:58:54.305Z,991.56
2022-09-28T04:59:54.308Z,991.55
2022-09-28T05:00:54.310Z,991.55
2022-09-28T05:01:54.409Z,991.56
2022-09-28T05:02:54.363Z,991.56
2022-09-28T05:03:54.165Z,991.55
2022-09-28T05:04:54.138Z,991.56
2022-09-28T05:05:54.125Z,991.56
2022-09-28T05:06:54.158Z,991.56
2022-09-28T05:07:54.101Z,991.57
2022-09-28T05:08:54.152Z,991.58
2022-09-28T05:09:54.081Z,991.59
2022-09-28T05:10:54.079Z,991.59
2022-09-28T05:11:54.069Z,991.59
2022-09-28T05:12:54.055Z,991.59
2022-09-28T05:13:54.057Z,991.56
2022-09-28T05:14:54.043Z,991.58
2022-09-28T05:15:57.559Z,991.57
2022-09-28T05:16:54.089Z,991.58
2022-09-28T05:17:53.997Z,991.59
2022-09-28T05:18:54.019Z,991.60
2022-09-28T05:19:53.981Z,991.61
2022-09-28T05:20:53.989Z,991.62
2022-09-28T05:21:53.978Z,991.65
2022-09-28T05:22:53.953Z,991.66
2022-09-28T05:23:53.948Z,991.67
2022-09-28T05:24:53.979Z,991.65
2022-09-28T05:25:53.935Z,991.63
2022-09-28T05:26:53.947Z,991.63
2022-09-28T05:27:53.895Z,991.62
2022-09-28T05:28:53.902Z,991.61
2022-09-28T05:29:53.892Z,991.60
2022-09-28T05:30:53.872Z,991.60
2022-09-28T05:31:53.967Z,991.59
2022-09-28T05:32:53.850Z,991.59
2022-09-28T05:33:53.848Z,991.59
2022-09-28T05:34:53.831Z,991.59
2022-09-28T05:35:56.885Z,991.58
2022-09-28T05:36:53.810Z,991.59
2022-09-28T05:37:53.805Z,991.58
2022-09-28T05:38:53.834Z,991.57
2022-09-28T05:39:53.771Z,991.56
2022-09-28T05:40:53.876Z,991.54
2022-09-28T05:41:53.758Z,991.54
2022-09-28T05:42:53.748Z,991.53
2022-09-28T05:43:53.744Z,991.51
2022-09-28T05:44:53.754Z,991.49
2022-09-28T05:45:55.765Z,991.48
2022-09-28T05:46:53.719Z,991.48
2022-09-28T05:47:53.711Z,991.49
2022-09-28T05:48:53.708Z,991.49
2022-09-28T05:49:53.675Z,991.49
2022-09-28T05:50:53.668Z,991.49
2022-09-28T05:51:53.652Z,991.48
2022-09-28T05:52:53.669Z,991.48
2022-09-28T05:53:53.634Z,991.48
2022-09-28T05:54:53.628Z,991.46
2022-09-28T05:55:53.610Z,991.45
2022-09-28T05:56:53.677Z,991.46
2022-09-28T05:57:53.583Z,991.46
2022-09-28T05:58:53.598Z,991.44
2022-09-28T05:59:53.569Z,991.42
2022-09-28T06:00:53.600Z,991.40
2022-09-28T06:01:53.547Z,991.40
2022-09-28T06:02:53.547Z,991.37
2022-09-28T06:03:53.543Z,991.36
2022-09-28T06:04:53.553Z,991.33
2022-09-28T06:05:53.505Z,991.33
2022-09-28T06:06:53.497Z,991.32
2022-09-28T06:07:53.496Z,991.34
2022-09-28T06:08:53.487Z,991.34
2022-09-28T06:09:53.466Z,991.34
2022-09-28T06:10:53.468Z,991.31
2022-09-28T06:11:53.443Z,991.27
2022-09-28T06:12:53.436Z,991.26
2022-09-28T06:13:53.435Z,991.26
2022-09-28T06:14:53.414Z,991.24
2022-09-28T06:15:53.412Z,991.24
2022-09-28T06:16:53.476Z,991.24
2022-09-28T06:17:53.374Z,991.24
2022-09-28T06:18:53.600Z,991.23
2022-09-28T06:19:53.359Z,991.23
2022-09-28T06:20:53.381Z,991.21
2022-09-28T06:21:53.335Z,991.20
2022-09-28T06:22:53.333Z,991.20
2022-09-28T06:23:53.332Z,991.19
2022-09-28T06:24:53.314Z,991.19
2022-09-28T06:25:54.112Z,991.20
2022-09-28T06:26:53.290Z,991.19
2022-09-28T06:27:53.281Z,991.19
2022-09-28T06:28:53.780Z,991.18
2022-09-28T06:29:53.273Z,991.18
2022-09-28T06:30:53.327Z,991.16
2022-09-28T06:31:53.242Z,991.16
2022-09-28T06:32:53.231Z,991.16
2022-09-28T06:33:53.228Z,991.15
2022-09-28T06:34:56.336Z,991.15
2022-09-28T06:35:53.222Z,991.15
2022-09-28T06:36:53.191Z,991.15
2022-09-28T06:37:53.179Z,991.14
2022-09-28T06:38:53.179Z,991.13
2022-09-28T06:39:53.153Z,991.12
2022-09-28T06:40:53.180Z,991.12
2022-09-28T06:41:53.146Z,991.13
2022-09-28T06:42:53.124Z,991.13
2022-09-28T06:43:53.129Z,991.14
2022-09-28T06:44:53.129Z,991.16
2022-09-28T06:45:53.140Z,991.15
2022-09-28T06:46:53.082Z,991.14
2022-09-28T06:47:53.086Z,991.13
2022-09-28T06:48:53.080Z,991.12
2022-09-28T06:49:53.062Z,991.10
2022-09-28T06:50:53.043Z,991.10
2022-09-28T06:51:53.032Z,991.10
2022-09-28T06:52:53.015Z,991.11
2022-09-28T06:53:53.023Z,991.10
2022-09-28T06:54:52.996Z,991.10
2022-09-28T06:55:52.999Z,991.09
2022-09-28T06:56:52.978Z,991.08
2022-09-28T06:57:52.976Z,991.06
2022-09-28T06:58:52.965Z,991.05
2022-09-28T06:59:52.963Z,991.05
2022-09-28T07:00:53.023Z,991.04
2022-09-28T07:01:52.946Z,991.04
2022-09-28T07:02:52.917Z,991.03
2022-09-28T07:03:55.722Z,991.03
2022-09-28T07:04:52.891Z,991.03
2022-09-28T07:05:52.892Z,991.02
2022-09-28T07:06:52.872Z,991.02
2022-09-28T07:07:52.865Z,991.02
2022-09-28T07:09:02.657Z,991.02
2022-09-28T07:09:55.210Z,991.02
2022-09-28T07:10:52.921Z,991.02
2022-09-28T07:11:52.843Z,991.03
2022-09-28T07:12:52.811Z,991.04
2022-09-28T07:13:52.827Z,991.04
2022-09-28T07:14:53.255Z,991.05
2022-09-28T07:15:52.788Z,991.05
2022-09-28T07:17:10.705Z,991.06
2022-09-28T07:18:01.498Z,991.07
2022-09-28T07:18:52.773Z,991.08
2022-09-28T07:19:52.785Z,991.09
2022-09-28T07:20:54.683Z,991.10
2022-09-28T07:22:02.683Z,991.09
2022-09-28T07:22:52.718Z,991.11
2022-09-28T07:23:54.204Z,991.11
2022-09-28T07:24:52.681Z,991.11
2022-09-28T07:25:52.681Z,991.11
2022-09-28T07:26:52.692Z,991.11
2022-09-28T07:27:52.670Z,991.10
2022-09-28T07:28:52.649Z,991.09
2022-09-28T07:29:52.637Z,991.07
2022-09-28T07:30:52.754Z,991.05
2022-09-28T07:31:52.615Z,991.04
2022-09-28T07:32:52.611Z,991.03
2022-09-28T07:33:52.613Z,991.02
2022-09-28T07:34:58.095Z,991.02
2022-09-28T07:35:52.595Z,991.02
2022-09-28T07:36:52.603Z,991.02
2022-09-28T07:37:52.563Z,991.00
2022-09-28T07:38:52.541Z,991.02
2022-09-28T07:39:52.533Z,991.03
2022-09-28T07:40:52.562Z,991.03
2022-09-28T07:41:54.395Z,991.03
2022-09-28T07:42:52.519Z,991.03
2022-09-28T07:43:52.488Z,991.02
2022-09-28T07:44:52.483Z,991.03
2022-09-28T07:45:52.721Z,991.04
2022-09-28T07:46:52.461Z,991.04
2022-09-28T07:47:52.462Z,991.07
2022-09-28T07:48:52.435Z,991.07
2022-09-28T07:49:52.444Z,991.09
2022-09-28T07:50:52.456Z,991.10
2022-09-28T07:51:52.404Z,991.13
2022-09-28T07:52:52.405Z,991.14
2022-09-28T07:53:52.387Z,991.14
2022-09-28T07:54:52.372Z,991.14
2022-09-28T07:55:52.366Z,991.14
2022-09-28T07:56:52.351Z,991.12
2022-09-28T07:57:52.363Z,991.11
2022-09-28T07:59:00.087Z,991.12
2022-09-28T07:59:52.323Z,991.14
2022-09-28T08:00:55.040Z,991.13
2022-09-28T08:01:52.363Z,991.11
2022-09-28T08:02:52.305Z,991.08
2022-09-28T08:03:52.289Z,991.06
2022-09-28T08:04:52.284Z,991.07
2022-09-28T08:05:52.264Z,991.06
2022-09-28T08:06:52.244Z,991.07
2022-09-28T08:07:52.252Z,991.09
2022-09-28T08:08:52.224Z,991.07
2022-09-28T08:09:52.219Z,991.09
2022-09-28T08:10:52.235Z,991.09
2022-09-28T08:11:52.204Z,991.10
2022-09-28T08:12:52.198Z,991.07
2022-09-28T08:13:52.186Z,991.06
2022-09-28T08:14:52.174Z,991.04
2022-09-28T08:15:52.156Z,991.06
2022-09-28T08:16:53.345Z,991.06
2022-09-28T08:17:52.159Z,991.07
2022-09-28T08:18:52.127Z,991.07
2022-09-28T08:19:52.124Z,991.08
2022-09-28T08:20:52.120Z,991.11
2022-09-28T08:21:52.101Z,991.15
2022-09-28T08:22:52.097Z,991.19
2022-09-28T08:23:52.084Z,991.19
2022-09-28T08:24:52.068Z,991.21
2022-09-28T08:25:52.060Z,991.23
2022-09-28T08:26:52.056Z,991.24
2022-09-28T08:27:52.060Z,991.26
2022-09-28T08:28:52.017Z,991.27
2022-09-28T08:29:52.013Z,991.27
2022-09-28T08:30:52.041Z,991.28
2022-09-28T08:31:51.999Z,991.28
2022-09-28T08:32:52.005Z,991.27
2022-09-28T08:33:51.972Z,991.27
2022-09-28T08:34:51.966Z,991.29
2022-09-28T08:35:51.953Z,991.29
2022-09-28T08:36:51.959Z,991.31
2022-09-28T08:37:55.246Z,991.32
2022-09-28T08:38:51.915Z,991.33
2022-09-28T08:39:51.913Z,991.33
2022-09-28T08:40:51.929Z,991.33
2022-09-28T08:41:51.895Z,991.33
2022-09-28T08:42:51.886Z,991.33
2022-09-28T08:43:51.868Z,991.34
2022-09-28T08:44:51.857Z,991.32
2022-09-28T08:45:51.902Z,991.34
2022-09-28T08:46:51.835Z,991.34
2022-09-28T08:47:51.893Z,991.35
2022-09-28T08:49:12.984Z,991.35
2022-09-28T08:49:51.890Z,991.36
2022-09-28T08:50:51.793Z,991.36
2022-09-28T08:51:51.786Z,991.37
2022-09-28T08:52:51.793Z,991.38
2022-09-28T08:53:51.829Z,991.38
2022-09-28T08:54:51.755Z,991.39
2022-09-28T08:55:51.749Z,991.39
2022-09-28T08:56:51.730Z,991.38
2022-09-28T08:57:51.737Z,991.38
2022-09-28T08:58:51.712Z,991.38
2022-09-28T08:59:51.704Z,991.37
2022-09-28T09:00:51.765Z,991.36
2022-09-28T09:01:53.550Z,991.34
2022-09-28T09:02:51.724Z,991.35
2022-09-28T09:03:51.838Z,991.36
2022-09-28T09:04:51.643Z,991.36
2022-09-28T09:05:51.641Z,991.37
2022-09-28T09:06:51.738Z,991.38
2022-09-28T09:07:51.626Z,991.37
2022-09-28T09:08:51.601Z,991.38
2022-09-28T09:09:51.597Z,991.38
2022-09-28T09:10:51.600Z,991.37
2022-09-28T09:11:51.575Z,991.38
2022-09-28T09:12:54.623Z,991.36
2022-09-28T09:13:51.566Z,991.35
2022-09-28T09:14:51.546Z,991.34
2022-09-28T09:15:51.534Z,991.35
2022-09-28T09:16:51.579Z,991.36
2022-09-28T09:17:51.533Z,991.37
2022-09-28T09:18:51.495Z,991.37
2022-09-28T09:19:51.488Z,991.38
2022-09-28T09:20:51.485Z,991.37
2022-09-28T09:21:51.473Z,991.36
2022-09-28T09:22:51.472Z,991.35
2022-09-28T09:23:51.453Z,991.35
2022-09-28T09:24:51.435Z,991.35
2022-09-28T09:25:51.425Z,991.35
2022-09-28T09:26:51.421Z,991.34
2022-09-28T09:27:51.428Z,991.34
2022-09-28T09:28:51.403Z,991.34
2022-09-28T09:29:51.383Z,991.34
2022-09-28T09:30:51.455Z,991.33
2022-09-28T09:31:51.384Z,991.30
2022-09-28T09:32:51.359Z,991.28
2022-09-28T09:33:51.348Z,991.28
2022-09-28T09:34:51.331Z,991.28
2022-09-28T09:35:51.324Z,991.29
2022-09-28T09:36:51.320Z,991.30
2022-09-28T09:37:55.193Z,991.30
2022-09-28T09:38:51.301Z,991.28
2022-09-28T09:39:51.289Z,991.30
2022-09-28T09:40:51.396Z,991.30
2022-09-28T09:41:51.267Z,991.29
2022-09-28T09:42:51.247Z,991.30
2022-09-28T09:43:51.242Z,991.30
2022-09-28T09:44:51.229Z,991.32
2022-09-28T09:45:51.362Z,991.30
2022-09-28T09:46:51.203Z,991.31
2022-09-28T09:47:51.213Z,991.29
2022-09-28T09:48:51.189Z,991.29
2022-09-28T09:49:51.185Z,991.29
2022-09-28T09:50:51.160Z,991.29
2022-09-28T09:51:51.158Z,991.30
2022-09-28T09:52:51.155Z,991.31
2022-09-28T09:53:51.133Z,991.29
2022-09-28T09:54:51.116Z,991.29
2022-09-28T09:55:51.127Z,991.26
2022-09-28T09:56:51.121Z,991.26
2022-09-28T09:57:51.101Z,991.26
2022-09-28T09:58:51.076Z,991.23
2022-09-28T09:59:51.071Z,991.22
2022-09-28T10:00:51.057Z,991.25
2022-09-28T10:01:51.060Z,991.23
2022-09-28T10:02:51.130Z,991.23
2022-09-28T10:03:51.030Z,991.22
2022-09-28T10:04:51.140Z,991.23
2022-09-28T10:05:51.008Z,991.22
2022-09-28T10:06:50.994Z,991.23
2022-09-28T10:07:51.007Z,991.21
2022-09-28T10:08:50.979Z,991.20
2022-09-28T10:09:50.983Z,991.20
2022-09-28T10:10:50.977Z,991.21
2022-09-28T10:11:50.957Z,991.19
2022-09-28T10:12:50.957Z,991.18
2022-09-28T10:13:50.933Z,991.19
2022-09-28T10:14:50.932Z,991.19
2022-09-28T10:15:50.907Z,991.18
2022-09-28T10:16:50.963Z,991.19
2022-09-28T10:17:50.911Z,991.20
2022-09-28T10:18:50.878Z,991.20
2022-09-28T10:19:50.873Z,991.17
2022-09-28T10:20:50.861Z,991.20
2022-09-28T10:21:50.840Z,991.19
2022-09-28T10:22:50.839Z,991.22
2022-09-28T10:23:50.828Z,991.20
2022-09-28T10:24:50.815Z,991.18
2022-09-28T10:25:50.802Z,991.19
2022-09-28T10:26:50.804Z,991.19
2022-09-28T10:27:50.779Z,991.20
2022-09-28T10:28:50.763Z,991.21
2022-09-28T10:29:50.776Z,991.22
2022-09-28T10:30:50.854Z,991.19
2022-09-28T10:31:50.756Z,991.21
2022-09-28T10:32:50.735Z,991.19
2022-09-28T10:33:50.716Z,991.20
2022-09-28T10:34:51.191Z,991.19
2022-09-28T10:35:50.694Z,991.22
2022-09-28T10:36:50.702Z,991.22
2022-09-28T10:37:50.673Z,991.21
2022-09-28T10:38:50.677Z,991.21
2022-09-28T10:39:50.664Z,991.22
2022-09-28T10:40:50.740Z,991.22
2022-09-28T10:41:50.653Z,991.25
2022-09-28T10:42:50.626Z,991.26
2022-09-28T10:43:52.057Z,991.24
2022-09-28T10:44:50.595Z,991.24
2022-09-28T10:45:50.656Z,991.24
2022-09-28T10:46:50.600Z,991.23
2022-09-28T10:47:50.577Z,991.24
2022-09-28T10:48:50.560Z,991.22
2022-09-28T10:49:50.566Z,991.21
2022-09-28T10:50:50.533Z,991.26
2022-09-28T10:51:50.538Z,991.23
2022-09-28T10:52:50.514Z,991.22
2022-09-28T10:53:50.519Z,991.21
2022-09-28T10:54:50.507Z,991.22
2022-09-28T10:55:50.495Z,991.22
2022-09-28T10:56:50.491Z,991.27
2022-09-28T10:57:50.469Z,991.25
2022-09-28T10:58:50.453Z,991.26
2022-09-28T10:59:50.473Z,991.27
2022-09-28T11:00:50.427Z,991.24
2022-09-28T11:01:50.512Z,991.26
2022-09-28T11:02:50.431Z,991.24
2022-09-28T11:03:50.414Z,991.26
2022-09-28T11:04:50.398Z,991.28
2022-09-28T11:05:50.394Z,991.27
2022-09-28T11:06:50.483Z,991.30
2022-09-28T11:07:50.367Z,991.28
2022-09-28T11:08:50.350Z,991.28
2022-09-28T11:09:50.338Z,991.28
2022-09-28T11:10:50.335Z,991.26
2022-09-28T11:11:50.335Z,991.27
2022-09-28T11:12:50.329Z,991.27
2022-09-28T11:13:50.293Z,991.27
2022-09-28T11:14:50.291Z,991.29
2022-09-28T11:15:50.281Z,991.27
2022-09-28T11:16:50.318Z,991.28
2022-09-28T11:17:50.262Z,991.28
2022-09-28T11:18:50.249Z,991.29
2022-09-28T11:19:50.234Z,991.27
2022-09-28T11:20:50.232Z,991.27
2022-09-28T11:21:50.220Z,991.27
2022-09-28T11:22:52.599Z,991.27
2022-09-28T11:23:50.200Z,991.27
2022-09-28T11:24:50.185Z,991.28
2022-09-28T11:25:50.166Z,991.29
2022-09-28T11:26:50.179Z,991.27
2022-09-28T11:27:50.145Z,991.30
2022-09-28T11:28:50.142Z,991.30
2022-09-28T11:29:50.139Z,991.30
2022-09-28T11:30:50.211Z,991.26
2022-09-28T11:31:50.119Z,991.28
2022-09-28T11:32:50.101Z,991.30
2022-09-28T11:33:50.086Z,991.29
2022-09-28T11:35:03.314Z,991.27
2022-09-28T11:35:50.088Z,991.29
2022-09-28T11:36:50.084Z,991.28
2022-09-28T11:37:50.042Z,991.27
2022-09-28T11:38:50.044Z,991.27
2022-09-28T11:39:50.025Z,991.28
2022-09-28T11:40:50.091Z,991.28
2022-09-28T11:41:50.021Z,991.30
2022-09-28T11:42:50.070Z,991.30
2022-09-28T11:43:49.989Z,991.31
2022-09-28T11:44:49.983Z,991.31
2022-09-28T11:45:49.989Z,991.31
2022-09-28T11:46:49.972Z,991.33
2022-09-28T11:47:49.947Z,991.33
2022-09-28T11:48:49.939Z,991.35
2022-09-28T11:49:49.924Z,991.37
2022-09-28T11:50:49.911Z,991.36
2022-09-28T11:51:49.920Z,991.38
2022-09-28T11:52:49.899Z,991.35
2022-09-28T11:53:49.881Z,991.36
2022-09-28T11:54:49.877Z,991.38
2022-09-28T11:55:49.862Z,991.37
2022-09-28T11:56:49.871Z,991.40
2022-09-28T11:57:49.836Z,991.39
2022-09-28T11:58:49.835Z,991.39
2022-09-28T11:59:49.817Z,991.43
2022-09-28T12:00:49.821Z,991.42
2022-09-28T12:01:49.808Z,991.43
2022-09-28T12:02:49.921Z,991.41
2022-09-28T12:03:49.804Z,991.43
2022-09-28T12:04:49.771Z,991.43
2022-09-28T12:05:49.757Z,991.44
2022-09-28T12:06:49.766Z,991.44
2022-09-28T12:07:49.735Z,991.44
2022-09-28T12:08:49.745Z,991.46
2022-09-28T12:09:49.716Z,991.44
2022-09-28T12:10:49.710Z,991.44
2022-09-28T12:11:49.701Z,991.44
2022-09-28T12:12:49.687Z,991.45
2022-09-28T12:13:49.675Z,991.43
2022-09-28T12:14:49.670Z,991.45
2022-09-28T12:16:17.155Z,991.46
2022-09-28T12:17:07.663Z,991.45
2022-09-28T12:17:49.697Z,991.46
2022-09-28T12:18:49.676Z,991.44
2022-09-28T12:19:49.654Z,991.43
2022-09-28T12:20:49.602Z,991.42
2022-09-28T12:21:49.605Z,991.41
2022-09-28T12:22:49.590Z,991.41
2022-09-28T12:23:49.565Z,991.42
2022-09-28T12:24:49.578Z,991.43
2022-09-28T12:25:49.558Z,991.43
2022-09-28T12:26:49.549Z,991.44
2022-09-28T12:27:49.528Z,991.43
2022-09-28T12:28:49.521Z,991.40